sensor_id;sensor_type;location;lat;lon;timestamp;pressure;altitude;pressure_sealevel;temperature;humidity
9261;BME280;4667;42.726;23.252;2024-03-07T06:32:42;95040.38;;;5.11;86.23
9261;BME280;4667;42.726;23.252;2024-03-07T06:35:09;95049.50;;;5.57;86.18
9261;BME280;4667;42.726;23.252;2024-03-07T06:37:36;95046.13;;;5.86;85.14
9261;BME280;4667;42.726;23.252;2024-03-07T06:40:07;94991.00;;;5.69;83.68
9261;BME280;4667;42.726;23.252;2024-03-07T06:42:36;95059.44;;;6.45;82.65
9261;BME280;4667;42.726;23.252;2024-03-07T06:45:03;95057.06;;;6.67;81.19
9261;BME280;4667;42.726;23.252;2024-03-07T06:47:31;95046.56;;;6.78;80.26
9261;BME280;4667;42.726;23.252;2024-03-07T06:49:59;95047.38;;;6.91;78.95
9261;BME280;4667;42.726;23.252;2024-03-07T06:52:26;95005.88;;;6.64;77.98
9261;BME280;4667;42.726;23.252;2024-03-07T06:54:53;95053.97;;;7.05;77.68
9261;BME280;4667;42.726;23.252;2024-03-07T06:57:21;95059.47;;;6.92;76.69
9261;BME280;4667;42.726;23.252;2024-03-07T06:59:48;95057.72;;;7.21;76.26
9261;BME280;4667;42.726;23.252;2024-03-07T07:02:16;95056.81;;;7.15;75.93
9261;BME280;4667;42.726;23.252;2024-03-07T07:04:53;94738.78;;;5.24;76.03
9261;BME280;4667;42.726;23.252;2024-03-07T07:07:22;94905.53;;;6.52;75.43
9261;BME280;4667;42.726;23.252;2024-03-07T07:09:51;94779.38;;;5.73;74.83
9261;BME280;4667;42.726;23.252;2024-03-07T07:12:20;94738.78;;;5.47;74.21
9261;BME280;4667;42.726;23.252;2024-03-07T07:14:47;94465.59;;;3.80;73.50
9261;BME280;4667;42.726;23.252;2024-03-07T07:17:28;95005.22;;;7.44;73.64
9261;BME280;4667;42.726;23.252;2024-03-07T07:19:57;94744.34;;;5.86;72.98
9261;BME280;4667;42.726;23.252;2024-03-07T07:22:26;94991.09;;;7.34;73.35
9261;BME280;4667;42.726;23.252;2024-03-07T07:24:53;94751.66;;;5.95;72.80
9261;BME280;4667;42.726;23.252;2024-03-07T07:27:21;95047.50;;;7.88;72.78
9261;BME280;4667;42.726;23.252;2024-03-07T07:29:48;94795.66;;;6.34;71.82
9261;BME280;4667;42.726;23.252;2024-03-07T07:32:15;94865.75;;;6.67;72.44
9261;BME280;4667;42.726;23.252;2024-03-07T07:34:42;95047.88;;;8.08;72.01
9261;BME280;4667;42.726;23.252;2024-03-07T07:37:09;95048.88;;;8.19;70.40
9261;BME280;4667;42.726;23.252;2024-03-07T07:39:38;95038.84;;;8.33;69.68
9261;BME280;4667;42.726;23.252;2024-03-07T07:42:05;94916.63;;;7.63;70.17
9261;BME280;4667;42.726;23.252;2024-03-07T07:44:32;95022.91;;;8.51;70.72
9261;BME280;4667;42.726;23.252;2024-03-07T07:46:59;95031.59;;;8.52;69.82
9261;BME280;4667;42.726;23.252;2024-03-07T07:49:26;95038.44;;;8.53;69.47
9261;BME280;4667;42.726;23.252;2024-03-07T07:51:53;95032.63;;;8.51;69.21
9261;BME280;4667;42.726;23.252;2024-03-07T07:54:21;94811.22;;;6.81;69.16
9261;BME280;4667;42.726;23.252;2024-03-07T07:56:49;95039.13;;;8.48;68.13
9261;BME280;4667;42.726;23.252;2024-03-07T07:59:16;94914.91;;;7.57;69.07
9261;BME280;4667;42.726;23.252;2024-03-07T08:01:43;95046.06;;;8.38;68.52
9261;BME280;4667;42.726;23.252;2024-03-07T08:04:10;94997.34;;;8.18;68.61
9261;BME280;4667;42.726;23.252;2024-03-07T08:06:37;95048.47;;;8.56;69.21
9261;BME280;4667;42.726;23.252;2024-03-07T08:09:04;95064.88;;;8.63;69.02
9261;BME280;4667;42.726;23.252;2024-03-07T08:11:35;95053.47;;;8.74;68.86
9261;BME280;4667;42.726;23.252;2024-03-07T08:14:03;95048.94;;;8.70;69.21
9261;BME280;4667;42.726;23.252;2024-03-07T08:16:31;94847.09;;;7.49;67.37
9261;BME280;4667;42.726;23.252;2024-03-07T08:18:59;95000.81;;;8.36;68.28
9261;BME280;4667;42.726;23.252;2024-03-07T08:21:26;95068.38;;;8.52;67.58
9261;BME280;4667;42.726;23.252;2024-03-07T08:23:53;94924.78;;;7.50;67.94
9261;BME280;4667;42.726;23.252;2024-03-07T08:26:20;95071.63;;;8.59;67.40
9261;BME280;4667;42.726;23.252;2024-03-07T08:28:47;95069.16;;;8.69;66.38
9261;BME280;4667;42.726;23.252;2024-03-07T08:31:16;94811.34;;;7.14;66.30
9261;BME280;4667;42.726;23.252;2024-03-07T08:33:42;94868.25;;;7.59;66.39
9261;BME280;4667;42.726;23.252;2024-03-07T08:36:11;94997.00;;;8.43;66.62
9261;BME280;4667;42.726;23.252;2024-03-07T08:38:38;94950.16;;;8.06;66.06
9261;BME280;4667;42.726;23.252;2024-03-07T08:41:05;94952.84;;;8.28;65.47
9261;BME280;4667;42.726;23.252;2024-03-07T08:43:32;95089.56;;;9.13;65.34
9261;BME280;4667;42.726;23.252;2024-03-07T08:46:01;94923.34;;;8.04;65.44
9261;BME280;4667;42.726;23.252;2024-03-07T08:48:37;94883.28;;;7.80;65.37
9261;BME280;4667;42.726;23.252;2024-03-07T08:51:06;94540.16;;;5.81;66.04
9261;BME280;4667;42.726;23.252;2024-03-07T08:53:34;94972.53;;;8.59;66.01
9261;BME280;4667;42.726;23.252;2024-03-07T08:56:06;94893.75;;;8.09;65.81
9261;BME280;4667;42.726;23.252;2024-03-07T08:58:34;94718.13;;;7.23;65.25
9261;BME280;4667;42.726;23.252;2024-03-07T09:01:03;95012.47;;;9.12;65.00
9261;BME280;4667;42.726;23.252;2024-03-07T09:03:30;95055.41;;;9.34;65.27
9261;BME280;4667;42.726;23.252;2024-03-07T09:06:06;94967.13;;;9.05;64.42
9261;BME280;4667;42.726;23.252;2024-03-07T09:08:33;95105.66;;;9.94;64.62
9261;BME280;4667;42.726;23.252;2024-03-07T09:11:00;95036.78;;;9.41;63.03
9261;BME280;4667;42.726;23.252;2024-03-07T09:13:32;95077.38;;;9.45;63.91
9261;BME280;4667;42.726;23.252;2024-03-07T09:16:00;95012.50;;;8.95;63.80
9261;BME280;4667;42.726;23.252;2024-03-07T09:18:30;95109.56;;;9.69;63.63
9261;BME280;4667;42.726;23.252;2024-03-07T09:21:00;94843.13;;;7.80;64.35
9261;BME280;4667;42.726;23.252;2024-03-07T09:23:29;94620.66;;;6.31;64.10
9261;BME280;4667;42.726;23.252;2024-03-07T09:25:58;94898.47;;;8.29;63.91
9261;BME280;4667;42.726;23.252;2024-03-07T09:28:28;95061.13;;;9.31;64.69
9261;BME280;4667;42.726;23.252;2024-03-07T09:31:00;94639.91;;;6.70;65.69
9261;BME280;4667;42.726;23.252;2024-03-07T09:33:29;94565.72;;;6.19;64.34
9261;BME280;4667;42.726;23.252;2024-03-07T09:35:56;94740.53;;;7.65;64.24
9261;BME280;4667;42.726;23.252;2024-03-07T09:38:29;94732.97;;;7.68;62.86
9261;BME280;4667;42.726;23.252;2024-03-07T09:40:58;94805.25;;;8.31;63.19
9261;BME280;4667;42.726;23.252;2024-03-07T09:43:27;94784.56;;;8.18;62.39
9261;BME280;4667;42.726;23.252;2024-03-07T09:45:57;95107.50;;;10.42;62.47
9261;BME280;4667;42.726;23.252;2024-03-07T09:48:25;94539.69;;;6.80;61.80
9261;BME280;4667;42.726;23.252;2024-03-07T09:50:55;95075.06;;;10.41;61.80
9261;BME280;4667;42.726;23.252;2024-03-07T09:53:25;95108.34;;;10.48;61.31
9261;BME280;4667;42.726;23.252;2024-03-07T09:55:54;94964.94;;;9.41;61.32
9261;BME280;4667;42.726;23.252;2024-03-07T09:58:21;95093.59;;;10.47;61.61
9261;BME280;4667;42.726;23.252;2024-03-07T10:00:49;94774.19;;;8.45;60.76
9261;BME280;4667;42.726;23.252;2024-03-07T10:03:20;95089.94;;;10.53;61.98
9261;BME280;4667;42.726;23.252;2024-03-07T10:05:49;95033.91;;;10.35;62.20
9261;BME280;4667;42.726;23.252;2024-03-07T10:08:18;95015.34;;;10.25;62.11
9261;BME280;4667;42.726;23.252;2024-03-07T10:10:45;95069.97;;;10.94;61.24
9261;BME280;4667;42.726;23.252;2024-03-07T10:13:14;95080.13;;;11.12;60.41
9261;BME280;4667;42.726;23.252;2024-03-07T10:15:43;95076.34;;;11.40;58.48
9261;BME280;4667;42.726;23.252;2024-03-07T10:18:10;94779.59;;;9.69;58.29
9261;BME280;4667;42.726;23.252;2024-03-07T10:20:39;95069.19;;;11.83;58.53
9261;BME280;4667;42.726;23.252;2024-03-07T10:23:08;95071.19;;;12.29;57.19
9261;BME280;4667;42.726;23.252;2024-03-07T10:25:36;95046.88;;;12.52;55.01
9261;BME280;4667;42.726;23.252;2024-03-07T10:28:04;95072.81;;;12.96;54.32
9261;BME280;4667;42.726;23.252;2024-03-07T10:30:41;95070.84;;;13.78;52.45
9261;BME280;4667;42.726;23.252;2024-03-07T10:33:10;95059.78;;;14.15;51.35
9261;BME280;4667;42.726;23.252;2024-03-07T10:35:39;95007.06;;;13.54;50.77
9261;BME280;4667;42.726;23.252;2024-03-07T10:38:06;95066.94;;;14.20;51.07
9261;BME280;4667;42.726;23.252;2024-03-07T10:40:37;94702.41;;;12.01;50.11
9261;BME280;4667;42.726;23.252;2024-03-07T10:43:10;95060.16;;;14.43;50.28
9261;BME280;4667;42.726;23.252;2024-03-07T10:45:43;95014.16;;;13.69;49.81
9261;BME280;4667;42.726;23.252;2024-03-07T10:48:12;95058.97;;;13.60;50.57
9261;BME280;4667;42.726;23.252;2024-03-07T10:50:50;95055.59;;;13.34;52.67
9261;BME280;4667;42.726;23.252;2024-03-07T10:53:24;95059.56;;;13.16;51.48
9261;BME280;4667;42.726;23.252;2024-03-07T10:56:10;95049.53;;;12.67;53.53
9261;BME280;4667;42.726;23.252;2024-03-07T10:58:49;95001.06;;;12.06;52.33
9261;BME280;4667;42.726;23.252;2024-03-07T11:01:23;94853.19;;;11.23;53.97
9261;BME280;4667;42.726;23.252;2024-03-07T11:03:53;95044.69;;;12.08;56.01
9261;BME280;4667;42.726;23.252;2024-03-07T11:06:23;95022.31;;;11.63;55.78
9261;BME280;4667;42.726;23.252;2024-03-07T11:08:52;94983.69;;;11.42;54.74
9261;BME280;4667;42.726;23.252;2024-03-07T11:11:20;94997.72;;;11.53;56.20
9261;BME280;4667;42.726;23.252;2024-03-07T11:13:49;94891.94;;;10.59;56.74
9261;BME280;4667;42.726;23.252;2024-03-07T11:16:19;95038.38;;;11.52;56.87
9261;BME280;4667;42.726;23.252;2024-03-07T11:22:05;94909.81;;;10.47;57.29
9261;BME280;4667;42.726;23.252;2024-03-07T11:24:41;94874.50;;;10.53;56.33
9261;BME280;4667;42.726;23.252;2024-03-07T11:27:20;95022.53;;;11.47;56.48
9261;BME280;4667;42.726;23.252;2024-03-07T11:30:10;94862.81;;;10.34;57.01
9261;BME280;4667;42.726;23.252;2024-03-07T11:33:21;94748.81;;;9.69;56.03
9261;BME280;4667;42.726;23.252;2024-03-07T11:35:50;94718.41;;;9.56;56.41
9261;BME280;4667;42.726;23.252;2024-03-07T11:38:31;94845.13;;;10.82;56.20
9261;BME280;4667;42.726;23.252;2024-03-07T11:41:00;94964.50;;;11.77;54.93
9261;BME280;4667;42.726;23.252;2024-03-07T11:43:29;95029.59;;;11.99;55.04
9261;BME280;4667;42.726;23.252;2024-03-07T11:45:57;94856.41;;;10.72;56.28
9261;BME280;4667;42.726;23.252;2024-03-07T11:48:25;94928.88;;;11.07;55.99
9261;BME280;4667;42.726;23.252;2024-03-07T11:50:55;94553.00;;;8.53;57.33
9261;BME280;4667;42.726;23.252;2024-03-07T11:53:27;94788.66;;;9.83;58.17
9261;BME280;4667;42.726;23.252;2024-03-07T11:55:54;94927.31;;;10.63;58.21
9261;BME280;4667;42.726;23.252;2024-03-07T11:58:27;95016.59;;;11.24;57.45
9261;BME280;4667;42.726;23.252;2024-03-07T12:01:10;94558.72;;;7.96;59.09
9261;BME280;4667;42.726;23.252;2024-03-07T12:03:39;94978.28;;;10.74;58.58
9261;BME280;4667;42.726;23.252;2024-03-07T12:06:07;94980.34;;;10.67;58.71
9261;BME280;4667;42.726;23.252;2024-03-07T12:08:40;95032.34;;;10.72;58.88
9261;BME280;4667;42.726;23.252;2024-03-07T12:11:09;94719.56;;;8.74;59.74
9261;BME280;4667;42.726;23.252;2024-03-07T12:13:41;95020.53;;;10.79;58.53
9261;BME280;4667;42.726;23.252;2024-03-07T12:16:16;95024.06;;;10.58;59.26
9261;BME280;4667;42.726;23.252;2024-03-07T12:18:47;95023.72;;;10.49;59.30
9261;BME280;4667;42.726;23.252;2024-03-07T12:21:15;95019.31;;;10.55;59.77
9261;BME280;4667;42.726;23.252;2024-03-07T12:23:46;94978.25;;;10.05;59.89
9261;BME280;4667;42.726;23.252;2024-03-07T12:26:13;95024.50;;;10.45;60.65
9261;BME280;4667;42.726;23.252;2024-03-07T12:28:50;94939.13;;;9.92;60.52
9261;BME280;4667;42.726;23.252;2024-03-07T12:31:19;95021.97;;;10.60;60.62
9261;BME280;4667;42.726;23.252;2024-03-07T12:33:50;94933.38;;;9.95;60.82
9261;BME280;4667;42.726;23.252;2024-03-07T12:36:17;94916.91;;;10.09;60.50
9261;BME280;4667;42.726;23.252;2024-03-07T12:38:54;94996.06;;;10.52;60.28
9261;BME280;4667;42.726;23.252;2024-03-07T12:41:22;94934.78;;;10.07;60.53
9261;BME280;4667;42.726;23.252;2024-03-07T12:43:50;94890.03;;;9.80;60.75
9261;BME280;4667;42.726;23.252;2024-03-07T12:46:23;94939.31;;;10.12;60.78
9261;BME280;4667;42.726;23.252;2024-03-07T12:48:54;95009.25;;;10.52;59.83
9261;BME280;4667;42.726;23.252;2024-03-07T12:51:25;94926.50;;;9.94;59.40
9261;BME280;4667;42.726;23.252;2024-03-07T12:53:55;95054.16;;;10.62;59.21
9261;BME280;4667;42.726;23.252;2024-03-07T12:56:21;94898.16;;;9.74;58.48
9261;BME280;4667;42.726;23.252;2024-03-07T12:58:48;94985.78;;;9.96;57.60
9261;BME280;4667;42.726;23.252;2024-03-07T13:01:19;95062.69;;;9.27;56.78
9261;BME280;4667;42.726;23.252;2024-03-07T13:03:48;95059.34;;;9.15;57.84
9261;BME280;4667;42.726;23.252;2024-03-07T13:06:15;95017.09;;;8.66;56.75
9261;BME280;4667;42.726;23.252;2024-03-07T13:08:44;94970.16;;;8.24;57.43
9261;BME280;4667;42.726;23.252;2024-03-07T13:11:13;94881.66;;;7.46;58.86
9261;BME280;4667;42.726;23.252;2024-03-07T13:13:42;95054.78;;;8.26;61.21
9261;BME280;4667;42.726;23.252;2024-03-07T13:21:05;94317.22;;;3.25;60.99
9261;BME280;4667;42.726;23.252;2024-03-07T13:23:49;94727.44;;;5.65;62.49
9261;BME280;4667;42.726;23.252;2024-03-07T13:36:24;94656.25;;;5.28;64.18
9261;BME280;4667;42.726;23.252;2024-03-07T13:38:58;95089.94;;;7.68;64.93
9261;BME280;4667;42.726;23.252;2024-03-07T13:42:04;95050.97;;;7.77;65.12
9261;BME280;4667;42.726;23.252;2024-03-07T13:45:15;94721.28;;;5.47;64.63
9261;BME280;4667;42.726;23.252;2024-03-07T14:02:05;95053.09;;;8.20;68.76
9261;BME280;4667;42.726;23.252;2024-03-07T14:05:12;94809.16;;;6.54;68.09
9261;BME280;4667;42.726;23.252;2024-03-07T14:08:10;95056.91;;;8.13;69.58
9261;BME280;4667;42.726;23.252;2024-03-07T14:11:07;94958.53;;;7.46;70.08
9261;BME280;4667;42.726;23.252;2024-03-07T14:13:54;94746.19;;;5.85;70.85
9261;BME280;4667;42.726;23.252;2024-03-07T14:17:13;95080.31;;;7.86;71.54
9261;BME280;4667;42.726;23.252;2024-03-07T14:23:23;94934.84;;;7.13;73.43
9261;BME280;4667;42.726;23.252;2024-03-07T14:26:14;94967.09;;;7.13;74.32
9261;BME280;4667;42.726;23.252;2024-03-07T14:29:05;95065.44;;;7.91;74.27
9261;BME280;4667;42.726;23.252;2024-03-07T14:31:37;95057.56;;;7.91;73.76
9261;BME280;4667;42.726;23.252;2024-03-07T14:34:12;94830.16;;;6.31;73.71
9261;BME280;4667;42.726;23.252;2024-03-07T14:36:56;94949.44;;;7.09;73.84
9261;BME280;4667;42.726;23.252;2024-03-07T14:39:41;94836.38;;;6.53;73.51
9261;BME280;4667;42.726;23.252;2024-03-07T14:42:14;94947.53;;;6.81;74.48
9261;BME280;4667;42.726;23.252;2024-03-07T14:44:45;94981.84;;;7.43;74.69
9261;BME280;4667;42.726;23.252;2024-03-07T14:47:19;95008.00;;;7.66;74.90
9261;BME280;4667;42.726;23.252;2024-03-07T14:50:09;95040.75;;;7.92;73.52
9261;BME280;4667;42.726;23.252;2024-03-07T14:52:37;94865.88;;;6.72;72.92
9261;BME280;4667;42.726;23.252;2024-03-07T14:55:12;94293.38;;;3.10;72.43
9261;BME280;4667;42.726;23.252;2024-03-07T14:57:46;94989.19;;;7.29;73.77
9261;BME280;4667;42.726;23.252;2024-03-07T15:00:18;94951.59;;;7.12;73.46
9261;BME280;4667;42.726;23.252;2024-03-07T15:02:54;94729.00;;;5.66;73.45
9261;BME280;4667;42.726;23.252;2024-03-07T15:05:26;94807.41;;;6.19;74.13
9261;BME280;4667;42.726;23.252;2024-03-07T15:07:55;95074.00;;;7.87;74.65
9261;BME280;4667;42.726;23.252;2024-03-07T15:10:26;95071.34;;;7.98;74.00
9261;BME280;4667;42.726;23.252;2024-03-07T15:12:55;94974.88;;;7.37;74.13
9261;BME280;4667;42.726;23.252;2024-03-07T15:15:22;94766.31;;;6.08;73.09
9261;BME280;4667;42.726;23.252;2024-03-07T15:17:51;94628.28;;;5.16;72.59
9261;BME280;4667;42.726;23.252;2024-03-07T15:20:18;94754.84;;;6.09;72.50
9261;BME280;4667;42.726;23.252;2024-03-07T15:22:52;94848.25;;;6.44;72.14
9261;BME280;4667;42.726;23.252;2024-03-07T15:25:20;95095.88;;;8.04;72.08
9261;BME280;4667;42.726;23.252;2024-03-07T15:27:48;95018.00;;;7.52;72.95
9261;BME280;4667;42.726;23.252;2024-03-07T15:30:15;95106.00;;;8.12;72.80
9261;BME280;4667;42.726;23.252;2024-03-07T15:32:43;95103.44;;;8.00;73.22
9261;BME280;4667;42.726;23.252;2024-03-07T15:35:11;95099.13;;;7.82;73.67
9261;BME280;4667;42.726;23.252;2024-03-07T15:37:39;95112.41;;;8.16;73.52
9261;BME280;4667;42.726;23.252;2024-03-07T15:40:09;95070.97;;;7.78;72.95
9261;BME280;4667;42.726;23.252;2024-03-07T15:42:39;95111.34;;;8.17;73.52
9261;BME280;4667;42.726;23.252;2024-03-07T15:45:08;94790.69;;;5.97;73.42
9261;BME280;4667;42.726;23.252;2024-03-07T15:47:45;94960.91;;;7.19;73.50
9261;BME280;4667;42.726;23.252;2024-03-07T15:50:15;95114.66;;;8.24;73.07
9261;BME280;4667;42.726;23.252;2024-03-07T15:52:44;95068.75;;;7.87;72.90
9261;BME280;4667;42.726;23.252;2024-03-07T15:55:13;94968.53;;;7.33;72.82
9261;BME280;4667;42.726;23.252;2024-03-07T15:57:44;94945.31;;;7.13;72.59
9261;BME280;4667;42.726;23.252;2024-03-07T16:00:14;94874.41;;;6.67;72.69
9261;BME280;4667;42.726;23.252;2024-03-07T16:02:52;94934.75;;;6.96;73.22
9261;BME280;4667;42.726;23.252;2024-03-07T16:05:21;94781.09;;;5.91;73.43
9261;BME280;4667;42.726;23.252;2024-03-07T16:07:49;94958.22;;;6.91;73.50
9261;BME280;4667;42.726;23.252;2024-03-07T16:10:21;94836.22;;;6.19;72.72
9261;BME280;4667;42.726;23.252;2024-03-07T16:12:50;95120.13;;;7.94;73.26
9261;BME280;4667;42.726;23.252;2024-03-07T16:15:20;94637.38;;;4.79;72.08
9261;BME280;4667;42.726;23.252;2024-03-07T16:17:48;94818.69;;;5.96;72.21
9261;BME280;4667;42.726;23.252;2024-03-07T16:20:16;94980.59;;;6.82;72.92
9261;BME280;4667;42.726;23.252;2024-03-07T16:22:43;94979.44;;;6.89;72.51
9261;BME280;4667;42.726;23.252;2024-03-07T16:25:12;95018.19;;;6.99;72.01
9261;BME280;4667;42.726;23.252;2024-03-07T16:27:42;94819.00;;;5.65;72.14
9261;BME280;4667;42.726;23.252;2024-03-07T16:30:12;95001.09;;;6.85;72.84
9261;BME280;4667;42.726;23.252;2024-03-07T16:32:41;95139.72;;;7.63;72.73
9261;BME280;4667;42.726;23.252;2024-03-07T16:35:08;95045.56;;;7.03;73.11
9261;BME280;4667;42.726;23.252;2024-03-07T16:37:37;94492.59;;;3.56;72.29
9261;BME280;4667;42.726;23.252;2024-03-07T16:40:06;95073.00;;;7.24;72.79
9261;BME280;4667;42.726;23.252;2024-03-07T16:42:34;95140.97;;;7.61;72.72
9261;BME280;4667;42.726;23.252;2024-03-07T16:45:08;95122.63;;;7.49;73.32
9261;BME280;4667;42.726;23.252;2024-03-07T16:47:40;94955.41;;;6.22;73.57
9261;BME280;4667;42.726;23.252;2024-03-07T16:50:08;95037.34;;;6.99;73.20
9261;BME280;4667;42.726;23.252;2024-03-07T16:52:35;94902.00;;;5.99;74.00
9261;BME280;4667;42.726;23.252;2024-03-07T16:55:03;95123.97;;;7.40;73.78
9261;BME280;4667;42.726;23.252;2024-03-07T16:57:36;95146.34;;;7.54;74.15
9261;BME280;4667;42.726;23.252;2024-03-07T17:00:07;95000.66;;;6.64;73.79
9261;BME280;4667;42.726;23.252;2024-03-07T17:02:35;95147.78;;;7.62;74.05
9261;BME280;4667;42.726;23.252;2024-03-07T17:05:03;94761.69;;;4.98;73.75
9261;BME280;4667;42.726;23.252;2024-03-07T17:07:39;95150.66;;;7.60;74.29
9261;BME280;4667;42.726;23.252;2024-03-07T17:10:08;95157.50;;;7.61;74.01
9261;BME280;4667;42.726;23.252;2024-03-07T17:12:44;95103.69;;;7.35;73.74
9261;BME280;4667;42.726;23.252;2024-03-07T17:15:14;95016.38;;;6.64;74.05
9261;BME280;4667;42.726;23.252;2024-03-07T17:17:43;95067.78;;;7.00;74.82
9261;BME280;4667;42.726;23.252;2024-03-07T17:20:11;94885.56;;;5.81;74.47
9261;BME280;4667;42.726;23.252;2024-03-07T17:22:38;95146.34;;;7.54;74.09
9261;BME280;4667;42.726;23.252;2024-03-07T17:25:06;95151.91;;;7.46;74.57
9261;BME280;4667;42.726;23.252;2024-03-07T17:27:34;95004.81;;;6.18;74.59
9261;BME280;4667;42.726;23.252;2024-03-07T17:30:02;95013.63;;;6.36;75.07
9261;BME280;4667;42.726;23.252;2024-03-07T17:32:33;94736.06;;;4.77;74.72
9261;BME280;4667;42.726;23.252;2024-03-07T17:35:00;95077.03;;;6.91;75.83
9261;BME280;4667;42.726;23.252;2024-03-07T17:37:28;94985.38;;;6.38;75.36
9261;BME280;4667;42.726;23.252;2024-03-07T17:39:55;95163.22;;;7.58;75.43
9261;BME280;4667;42.726;23.252;2024-03-07T17:42:23;95151.91;;;7.46;75.86
9261;BME280;4667;42.726;23.252;2024-03-07T17:44:51;95158.44;;;7.55;75.39
9261;BME280;4667;42.726;23.252;2024-03-07T17:47:20;95115.09;;;7.29;75.21
9261;BME280;4667;42.726;23.252;2024-03-07T17:49:49;95141.91;;;7.43;75.71
9261;BME280;4667;42.726;23.252;2024-03-07T17:52:17;94887.63;;;5.79;75.34
9261;BME280;4667;42.726;23.252;2024-03-07T17:54:46;95042.00;;;6.74;75.71
9261;BME280;4667;42.726;23.252;2024-03-07T17:57:14;95171.78;;;7.65;75.57
9261;BME280;4667;42.726;23.252;2024-03-07T17:59:42;95071.31;;;6.94;75.24
9261;BME280;4667;42.726;23.252;2024-03-07T18:02:12;94927.63;;;6.09;75.31
9261;BME280;4667;42.726;23.252;2024-03-07T18:04:40;94968.19;;;6.30;75.93
9261;BME280;4667;42.726;23.252;2024-03-07T18:07:14;95173.94;;;7.68;75.88
9261;BME280;4667;42.726;23.252;2024-03-07T18:09:42;94852.03;;;5.47;75.61
9261;BME280;4667;42.726;23.252;2024-03-07T18:12:09;95182.28;;;7.65;75.41
9261;BME280;4667;42.726;23.252;2024-03-07T18:14:40;95179.88;;;7.52;76.17
9261;BME280;4667;42.726;23.252;2024-03-07T18:17:07;95138.34;;;7.25;76.04
9261;BME280;4667;42.726;23.252;2024-03-07T18:19:34;95174.84;;;7.62;75.77
9261;BME280;4667;42.726;23.252;2024-03-07T18:22:02;95120.13;;;7.07;75.88
9261;BME280;4667;42.726;23.252;2024-03-07T18:24:32;95177.50;;;7.39;75.97
9261;BME280;4667;42.726;23.252;2024-03-07T18:26:59;95112.94;;;7.02;75.31
9261;BME280;4667;42.726;23.252;2024-03-07T18:29:37;94824.97;;;5.00;75.77
9261;BME280;4667;42.726;23.252;2024-03-07T18:32:04;94854.75;;;5.29;75.40
9261;BME280;4667;42.726;23.252;2024-03-07T18:34:36;94993.88;;;6.10;75.57
9261;BME280;4667;42.726;23.252;2024-03-07T18:37:04;94709.84;;;4.23;75.47
9261;BME280;4667;42.726;23.252;2024-03-07T18:39:39;94962.13;;;5.88;75.47
9261;BME280;4667;42.726;23.252;2024-03-07T18:47:15;94776.22;;;4.64;74.96
9261;BME280;4667;42.726;23.252;2024-03-07T18:49:56;94942.97;;;5.64;74.93
9261;BME280;4667;42.726;23.252;2024-03-07T18:52:23;94882.91;;;5.27;75.16
9261;BME280;4667;42.726;23.252;2024-03-07T18:54:55;94780.22;;;4.66;74.86
9261;BME280;4667;42.726;23.252;2024-03-07T18:57:22;94684.03;;;3.85;74.92
9261;BME280;4667;42.726;23.252;2024-03-07T18:59:50;94657.88;;;3.55;75.71
9261;BME280;4667;42.726;23.252;2024-03-07T19:02:18;94879.00;;;4.88;76.34
9261;BME280;4667;42.726;23.252;2024-03-07T19:04:50;95077.72;;;6.33;76.74
9261;BME280;4667;42.726;23.252;2024-03-07T19:07:19;94809.16;;;4.65;76.59
9261;BME280;4667;42.726;23.252;2024-03-07T19:09:48;95172.66;;;7.00;76.91
9261;BME280;4667;42.726;23.252;2024-03-07T19:12:19;95079.91;;;6.48;76.66
9261;BME280;4667;42.726;23.252;2024-03-07T19:14:47;94923.03;;;5.51;76.07
9261;BME280;4667;42.726;23.252;2024-03-07T19:17:17;95153.94;;;6.85;76.40
9261;BME280;4667;42.726;23.252;2024-03-07T19:19:45;95055.28;;;6.25;76.19
9261;BME280;4667;42.726;23.252;2024-03-07T19:22:14;94814.75;;;4.68;75.60
9261;BME280;4667;42.726;23.252;2024-03-07T19:24:42;95143.16;;;6.51;75.68
9261;BME280;4667;42.726;23.252;2024-03-07T19:27:13;94807.22;;;4.42;75.48
9261;BME280;4667;42.726;23.252;2024-03-07T19:29:52;94617.16;;;3.17;75.17
9261;BME280;4667;42.726;23.252;2024-03-07T19:32:30;94972.72;;;5.51;75.67
9261;BME280;4667;42.726;23.252;2024-03-07T19:35:01;95194.66;;;6.99;75.21
9261;BME280;4667;42.726;23.252;2024-03-07T19:37:30;94583.13;;;3.12;74.80
9261;BME280;4667;42.726;23.252;2024-03-07T19:40:06;94940.00;;;5.30;74.41
9261;BME280;4667;42.726;23.252;2024-03-07T19:42:43;94487.09;;;2.42;74.03
9261;BME280;4667;42.726;23.252;2024-03-07T19:45:14;94556.63;;;2.78;74.96
9261;BME280;4667;42.726;23.252;2024-03-07T19:47:54;94910.66;;;4.98;75.14
9261;BME280;4667;42.726;23.252;2024-03-07T19:50:25;94929.94;;;5.15;75.60
9261;BME280;4667;42.726;23.252;2024-03-07T19:52:53;94740.97;;;3.88;75.66
9261;BME280;4667;42.726;23.252;2024-03-07T19:55:35;94781.63;;;4.32;75.90
9261;BME280;4667;42.726;23.252;2024-03-07T19:58:06;95147.50;;;6.58;76.11
9261;BME280;4667;42.726;23.252;2024-03-07T20:00:38;94765.78;;;4.15;75.75
9261;BME280;4667;42.726;23.252;2024-03-07T20:03:10;94982.25;;;5.45;75.50
9261;BME280;4667;42.726;23.252;2024-03-07T20:05:40;94994.31;;;5.46;75.75
9261;BME280;4667;42.726;23.252;2024-03-07T20:08:09;95073.66;;;6.07;75.65
9261;BME280;4667;42.726;23.252;2024-03-07T20:10:41;94789.56;;;4.26;75.54
9261;BME280;4667;42.726;23.252;2024-03-07T20:13:15;95059.78;;;6.07;75.80
9261;BME280;4667;42.726;23.252;2024-03-07T20:15:56;95082.44;;;6.13;75.63
9261;BME280;4667;42.726;23.252;2024-03-07T20:18:34;95148.28;;;6.46;75.86
9261;BME280;4667;42.726;23.252;2024-03-07T20:21:08;94771.56;;;4.17;75.93
9261;BME280;4667;42.726;23.252;2024-03-07T20:23:43;94984.13;;;5.57;76.34
9261;BME280;4667;42.726;23.252;2024-03-07T20:26:12;95050.28;;;5.76;75.97
9261;BME280;4667;42.726;23.252;2024-03-07T20:28:42;94868.16;;;4.54;76.32
9261;BME280;4667;42.726;23.252;2024-03-07T20:31:11;95070.81;;;5.60;76.60
9261;BME280;4667;42.726;23.252;2024-03-07T20:33:38;94956.47;;;4.82;75.79
9261;BME280;4667;42.726;23.252;2024-03-07T20:36:07;95117.53;;;5.75;76.07
9261;BME280;4667;42.726;23.252;2024-03-07T20:38:35;95146.59;;;5.85;75.46
9261;BME280;4667;42.726;23.252;2024-03-07T20:41:03;95216.50;;;6.21;75.84
9261;BME280;4667;42.726;23.252;2024-03-07T20:43:30;95215.78;;;6.14;75.15
9261;BME280;4667;42.726;23.252;2024-03-07T20:45:59;95213.88;;;6.03;75.69
9261;BME280;4667;42.726;23.252;2024-03-07T20:48:31;94966.97;;;4.57;75.47
9261;BME280;4667;42.726;23.252;2024-03-07T20:50:58;95175.72;;;5.95;75.19
9261;BME280;4667;42.726;23.252;2024-03-07T20:53:30;95122.16;;;5.73;75.18